MMUN/CUN METAR and TAF weather

Enter ICAO airport designator
Station Type Date Time Source
MMUN METAR 2019/06/27 09:44 UTC NOAA

MMUN 270944Z 00000KT 7SM SCT015TCU 27/26 A3001 RMK 8/200 LTG N


Station Type Date Time Source
MMUN Decoded METAR 2019/06/27 09:44 UTC NOAA

Cancun International Airport, Mexico (MMUN) 21-02N 086-52W
Jun 27, 2019 - 05:44 AM EDT / 2019.06.27 0944 UTC
Wind: Calm:0
Visibility: 7 mile(s):0
Sky conditions: partly cloudy
Weather: Towering cumulus clouds, lightning observed
Temperature: 80 F (27 C)
Dew Point: 78 F (26 C)
Relative Humidity: 94%
Pressure (altimeter): 30.01 in. Hg (1016 hPa)
ob: MMUN 270944Z 00000KT 7SM SCT015TCU 27/26 A3001 RMK 8/200 LTG N
cycle: 9

Station Type Date Time Source
MMUN TAF 2019/06/27 12:25 UTC NOAA

TAF MMUN 271018Z 2712/2818 04005KT P6SM SCT015 TX32/2721Z TN27/2712Z
FM271800 05015KT P6SM BKN015 BKN250
FM280600 09005KT P6SM SCT015 SCT250
TEMPO 2815/2818 5SM -RA BKN015CB

Example: see airport list